リヤド の空港の天気 - METARとTAF

キング・ハーリド国際空港(リヤド) ( OERK / RUH ) - サウジアラビア リヤド
飛行場実況気象(Metar)
観測時間10/22 21:00 AST (10/22 18:00 UTC)
風向・風速南西 1m/s
視程10km以上
天気現象
なし
気温30℃
湿度12%
気圧1014hPa
METAROERK 221800Z 22002KT CAVOK 30/M03 Q1014 NOSIG
過去の天気等 Google飛行場航空写真 Wunderground天気予報

過去48時間のMETAR

飛行場予報(TAF)
発表時間: 10/22 20:00 AST (10/22 17:00 UTC)
予報対象時間: 22日21時 AST ~ 24日3時 AST
風向・風速不定 2m/s
視程10km以上
なし
23日9時 AST ~ 23日11時 AST に徐々に
風向・風速西南西 6m/s
TAF OERK 221700Z 2218/2324 VRB03KT CAVOK
BECMG 2306/2308 24012KT